Time;durP1;ratioP1;P1;durP2;ratioP2;P2;SDS_P1;SDS_P2;PMS_P1;PMS_P2;Temp;Humidity;BMP_temperature;BMP_pressure;BME280_temperature;BME280_humidity;BME280_pressure;Samples;Min_cycle;Max_cycle;Signal;HPM_P1;HPM_P2
2023/03/26 00:02:23;;;;;;;3.53;1.02;;;8.10;96.50;;;;;;7622691;19;20094;-76
2023/03/26 00:04:55;;;;;;;6.13;1.50;;;8.20;96.30;;;;;;7610563;19;20420;-76
2023/03/26 00:07:27;;;;;;;6.95;1.33;;;8.20;96.10;;;;;;7618370;19;21029;-76
2023/03/26 00:10:00;;;;;;;3.42;1.30;;;8.10;96.40;;;;;;7600289;19;20017;-74
2023/03/26 00:12:33;;;;;;;3.45;1.42;;;8.20;96.40;;;;;;7607755;19;20078;-76
2023/03/26 00:15:09;;;;;;;8.30;1.55;;;8.10;96.40;;;;;;7606136;19;20025;-76
2023/03/26 00:17:41;;;;;;;3.47;1.17;;;8.10;96.50;;;;;;7603653;19;20035;-75
2023/03/26 00:20:14;;;;;;;5.65;1.08;;;8.20;96.30;;;;;;7618107;19;20797;-75
2023/03/26 00:22:46;;;;;;;7.60;1.60;;;8.20;96.00;;;;;;7619432;19;20018;-76
2023/03/26 00:25:19;;;;;;;5.70;1.20;;;8.20;96.00;;;;;;7621207;19;20043;-75
2023/03/26 00:27:52;;;;;;;4.00;1.55;;;8.20;96.00;;;;;;7608950;19;20094;-75
2023/03/26 00:30:25;;;;;;;3.47;1.23;;;8.20;95.80;;;;;;7610577;19;20047;-76
2023/03/26 00:32:58;;;;;;;9.07;1.10;;;8.20;95.90;;;;;;7611580;19;20068;-76
2023/03/26 00:35:30;;;;;;;4.88;1.08;;;8.20;96.10;;;;;;7610081;19;20291;-76
2023/03/26 00:38:03;;;;;;;7.57;1.65;;;8.20;95.70;;;;;;7615384;19;20010;-77
2023/03/26 00:40:35;;;;;;;2.88;1.27;;;8.10;96.20;;;;;;7595820;19;20022;-76
2023/03/26 00:43:17;;;;;;;4.75;1.60;;;8.00;96.50;;;;;;7603461;19;20019;-76
2023/03/26 00:45:52;;;;;;;9.35;1.80;;;8.00;96.60;;;;;;7600781;19;20014;-77
2023/03/26 00:48:28;;;;;;;4.65;1.83;;;7.90;96.90;;;;;;7593798;19;20015;-76
2023/03/26 00:51:17;;;;;;;2.50;1.20;;;7.90;96.80;;;;;;7588539;19;20057;-75
2023/03/26 00:53:50;;;;;;;7.63;1.67;;;7.80;97.10;;;;;;7582156;19;21064;-76
2023/03/26 00:56:22;;;;;;;5.75;1.70;;;7.90;97.30;;;;;;7562944;19;21007;-76
2023/03/26 00:58:56;;;;;;;6.13;1.58;;;7.90;97.30;;;;;;7587644;19;20014;-76
2023/03/26 01:01:30;;;;;;;2.55;1.02;;;7.80;97.60;;;;;;7591537;19;20023;-76
2023/03/26 01:04:22;;;;;;;6.78;1.50;;;7.80;97.70;;;;;;7582787;19;20033;-75
2023/03/26 01:07:28;;;;;;;4.80;1.30;;;7.70;97.90;;;;;;7589971;19;20026;-76
2023/03/26 01:10:00;;;;;;;;;;;7.70;98.20;;;;;;7578812;19;20018;-76
2023/03/26 01:12:32;;;;;;;7.05;1.60;;;7.70;98.00;;;;;;7565033;19;19923;-75
2023/03/26 01:15:07;;;;;;;4.40;1.20;;;7.70;98.10;;;;;;7585139;19;20840;-75
2023/03/26 01:17:41;;;;;;;7.47;1.75;;;7.80;97.80;;;;;;7579305;19;20011;-76
2023/03/26 01:20:25;;;;;;;5.75;1.30;;;7.70;98.10;;;;;;7593236;19;20015;-76
2023/03/26 01:23:05;;;;;;;7.63;1.52;;;7.70;98.40;;;;;;7590654;19;20337;-75
2023/03/26 01:25:42;;;;;;;6.55;1.80;;;7.70;98.50;;;;;;7580543;19;20014;-77
2023/03/26 01:28:16;;;;;;;9.73;2.05;;;7.70;98.70;;;;;;7543830;19;20048;-76
2023/03/26 01:31:01;;;;;;;11.05;1.90;;;7.60;99.00;;;;;;7573993;19;20992;-76
2023/03/26 01:33:42;;;;;;;6.70;1.75;;;7.60;99.30;;;;;;7588343;19;20022;-76
2023/03/26 01:36:20;;;;;;;7.63;1.70;;;7.60;99.50;;;;;;7584608;19;20053;-76
2023/03/26 01:39:03;;;;;;;6.72;2.10;;;7.50;99.70;;;;;;7597152;19;20021;-76
2023/03/26 01:42:08;;;;;;;8.82;1.73;;;7.50;99.90;;;;;;7583757;19;20094;-76
2023/03/26 01:44:51;;;;;;;8.95;1.58;;;7.50;99.90;;;;;;7584703;19;20657;-76
2023/03/26 01:47:23;;;;;;;9.82;1.95;;;7.50;99.90;;;;;;7582312;19;20061;-75
2023/03/26 01:49:56;;;;;;;6.72;1.73;;;7.40;99.90;;;;;;7580420;19;20376;-76
2023/03/26 01:52:28;;;;;;;7.53;2.03;;;7.50;99.90;;;;;;7586098;19;20273;-76
2023/03/26 01:55:01;;;;;;;8.40;1.80;;;7.40;99.90;;;;;;7591303;19;20033;-76
2023/03/26 01:57:42;;;;;;;12.02;2.10;;;7.40;99.90;;;;;;7581599;19;20077;-76
2023/03/26 02:00:17;;;;;;;7.45;1.95;;;7.40;99.90;;;;;;7586983;19;20994;-76
2023/03/26 02:02:57;;;;;;;11.07;1.85;;;7.40;99.90;;;;;;7581077;19;20019;-76
2023/03/26 02:05:40;;;;;;;6.90;1.50;;;7.40;99.90;;;;;;7588537;19;20455;-76
2023/03/26 02:08:22;;;;;;;8.40;2.35;;;7.40;99.90;;;;;;7590705;19;20644;-76
2023/03/26 02:10:58;;;;;;;6.65;1.88;;;7.40;99.90;;;;;;7579268;19;20022;-76
2023/03/26 02:13:31;;;;;;;9.93;2.08;;;7.40;99.90;;;;;;7582390;19;20018;-75
2023/03/26 02:16:06;;;;;;;8.23;2.20;;;7.40;99.90;;;;;;7577392;19;20018;-76
2023/03/26 02:18:39;;;;;;;11.27;1.80;;;7.50;99.90;;;;;;7574684;19;20395;-75
2023/03/26 02:21:18;;;;;;;14.95;2.00;;;7.50;99.90;;;;;;7586296;19;20018;-75
2023/03/26 02:24:01;;;;;;;6.90;1.33;;;7.60;99.90;;;;;;7573929;19;20010;-75
2023/03/26 02:26:37;;;;;;;4.15;1.35;;;7.50;99.90;;;;;;7583983;19;20043;-75
2023/03/26 02:29:17;;;;;;;9.05;2.03;;;7.50;99.90;;;;;;7576892;19;20033;-75
2023/03/26 02:31:51;;;;;;;6.75;1.50;;;7.50;99.90;;;;;;7554632;19;20111;-74
2023/03/26 02:34:24;;;;;;;9.00;1.95;;;7.60;99.90;;;;;;7549771;19;20751;-76
2023/03/26 02:36:58;;;;;;;7.05;1.90;;;7.60;99.90;;;;;;7581932;19;20023;-77
2023/03/26 02:39:31;;;;;;;;;;;7.60;99.90;;;;;;7582780;19;20684;-76
2023/03/26 02:42:10;;;;;;;7.55;2.10;;;7.70;99.90;;;;;;7574217;19;20455;-77
2023/03/26 02:44:49;;;;;;;7.57;1.45;;;7.70;99.90;;;;;;7592426;19;20010;-76
2023/03/26 02:47:22;;;;;;;6.88;2.92;;;7.60;99.90;;;;;;7592151;19;20030;-75
2023/03/26 02:49:57;;;;;;;3.97;1.73;;;7.60;99.90;;;;;;7559104;19;20026;-76
2023/03/26 02:52:39;;;;;;;14.20;1.70;;;7.80;99.90;;;;;;7562304;19;20022;-76
2023/03/26 02:55:12;;;;;;;8.77;1.40;;;7.70;99.90;;;;;;7570369;19;20030;-75
2023/03/26 02:57:45;;;;;;;5.30;1.67;;;7.70;99.90;;;;;;7557962;19;20060;-76
2023/03/26 03:00:24;;;;;;;10.07;2.63;;;7.70;99.90;;;;;;7595237;19;20022;-76
2023/03/26 03:03:24;;;;;;;8.73;1.85;;;7.50;99.90;;;;;;7599682;19;20018;-77
2023/03/26 03:06:00;;;;;;;9.63;1.90;;;7.60;99.90;;;;;;7587261;19;20022;-77
2023/03/26 03:08:41;;;;;;;9.40;1.67;;;7.70;99.90;;;;;;7596814;19;20446;-76
2023/03/26 03:11:20;;;;;;;5.57;1.70;;;7.80;99.90;;;;;;7597514;19;20021;-75
2023/03/26 03:13:55;;;;;;;10.88;1.60;;;7.70;99.90;;;;;;7591388;19;20037;-76
2023/03/26 03:16:30;;;;;;;8.45;2.00;;;7.70;99.90;;;;;;7595267;19;20158;-75
2023/03/26 03:19:15;;;;;;;9.65;1.90;;;7.80;99.90;;;;;;7601821;19;20145;-76
2023/03/26 03:21:48;;;;;;;8.95;2.30;;;7.60;99.90;;;;;;7589695;19;20022;-76
2023/03/26 03:24:20;;;;;;;4.95;1.70;;;7.60;99.90;;;;;;7597413;19;20034;-76
2023/03/26 03:26:56;;;;;;;8.95;2.00;;;7.60;99.90;;;;;;7592048;19;20091;-76
2023/03/26 03:29:40;;;;;;;12.77;2.05;;;7.60;99.90;;;;;;7607275;19;20022;-76
2023/03/26 03:32:31;;;;;;;10.15;1.92;;;7.70;99.90;;;;;;7607456;19;20018;-77
2023/03/26 03:35:07;;;;;;;4.88;1.65;;;7.60;99.90;;;;;;7600874;19;20562;-76
2023/03/26 03:37:39;;;;;;;10.38;2.10;;;7.60;99.90;;;;;;7600174;19;20987;-77
2023/03/26 03:40:13;;;;;;;7.18;2.40;;;7.50;99.90;;;;;;7600426;19;20014;-76
2023/03/26 03:42:45;;;;;;;4.60;1.60;;;7.50;99.90;;;;;;7600105;19;20105;-77
2023/03/26 03:45:25;;;;;;;6.20;1.70;;;7.60;99.90;;;;;;7595892;19;20034;-76
2023/03/26 03:48:11;;;;;;;9.70;1.98;;;7.60;99.90;;;;;;7597263;19;20019;-76
2023/03/26 03:50:47;;;;;;;6.32;1.90;;;7.60;99.90;;;;;;7602922;19;20025;-76
2023/03/26 03:53:29;;;;;;;7.38;1.70;;;7.60;99.90;;;;;;7601682;19;20015;-76
2023/03/26 03:56:08;;;;;;;8.25;2.08;;;7.60;99.90;;;;;;7603899;19;22695;-76
2023/03/26 03:59:04;;;;;;;6.07;1.95;;;7.60;99.90;;;;;;7598644;19;20015;-76
2023/03/26 04:01:42;;;;;;;7.60;1.77;;;7.60;99.90;;;;;;7588392;19;20011;-76
2023/03/26 04:04:23;;;;;;;8.65;2.00;;;7.60;99.90;;;;;;7601180;19;20515;-76
2023/03/26 04:07:05;;;;;;;7.75;2.25;;;7.70;99.90;;;;;;7602138;19;20015;-76
2023/03/26 04:09:54;;;;;;;11.45;1.85;;;7.70;99.90;;;;;;7600374;19;20026;-77
2023/03/26 04:12:30;;;;;;;7.30;1.75;;;7.60;99.90;;;;;;7596495;19;20018;-76
2023/03/26 04:15:05;;;;;;;7.35;1.83;;;7.60;99.90;;;;;;7605706;19;20021;-77
2023/03/26 04:17:41;;;;;;;6.70;1.88;;;7.60;99.90;;;;;;7604836;19;20018;-75
2023/03/26 04:20:18;;;;;;;10.15;2.38;;;7.60;99.90;;;;;;7606946;19;20761;-75
2023/03/26 04:22:52;;;;;;;9.50;3.05;;;7.60;99.90;;;;;;7599406;19;20609;-76
2023/03/26 04:25:32;;;;;;;11.15;2.22;;;7.60;99.90;;;;;;7602389;19;20023;-76
2023/03/26 04:28:27;;;;;;;8.48;2.53;;;7.70;99.90;;;;;;7601214;19;20045;-76
2023/03/26 04:31:15;;;;;;;12.27;2.47;;;7.70;99.90;;;;;;7599039;19;20018;-76
2023/03/26 04:33:53;;;;;;;10.68;2.70;;;7.70;99.90;;;;;;7598307;19;20089;-76
2023/03/26 04:36:28;;;;;;;12.25;2.72;;;7.70;99.90;;;;;;7603840;19;20022;-76
2023/03/26 04:39:04;;;;;;;12.52;2.75;;;7.70;99.90;;;;;;7602928;19;20018;-76
2023/03/26 04:41:56;;;;;;;11.68;3.10;;;7.70;99.90;;;;;;7600493;19;20486;-76
2023/03/26 04:44:36;;;;;;;9.70;2.15;;;7.70;99.90;;;;;;7605041;19;20015;-76
2023/03/26 04:47:13;;;;;;;7.20;2.35;;;7.70;99.90;;;;;;7599437;19;20019;-75
2023/03/26 04:49:49;;;;;;;10.65;2.63;;;7.70;99.90;;;;;;7603109;19;20026;-76
2023/03/26 04:52:22;;;;;;;10.38;2.30;;;7.70;99.90;;;;;;7592893;19;20630;-76
2023/03/26 04:55:01;;;;;;;6.30;1.70;;;7.70;99.90;;;;;;7600080;19;20022;-76
2023/03/26 04:57:42;;;;;;;7.22;2.38;;;7.70;99.90;;;;;;7604445;19;20022;-77
2023/03/26 05:00:24;;;;;;;10.43;2.10;;;7.70;99.90;;;;;;7606045;19;21105;-76
2023/03/26 05:03:00;;;;;;;10.98;2.45;;;7.80;99.90;;;;;;7597955;19;21103;-76
2023/03/26 05:05:33;;;;;;;10.35;2.33;;;7.80;99.90;;;;;;7600406;19;20215;-76
2023/03/26 05:08:08;;;;;;;10.15;2.17;;;7.80;99.90;;;;;;7602042;19;20513;-75
2023/03/26 05:10:41;;;;;;;13.55;2.75;;;7.70;99.90;;;;;;7605159;19;20384;-77
2023/03/26 05:13:22;;;;;;;7.38;2.08;;;7.70;99.90;;;;;;7598657;19;20029;-76
2023/03/26 05:15:58;;;;;;;10.27;2.58;;;7.80;99.90;;;;;;7590205;19;20113;-76
2023/03/26 05:18:40;;;;;;;8.88;2.63;;;7.80;99.90;;;;;;7597064;19;21054;-75
2023/03/26 05:21:13;;;;;;;8.68;2.30;;;7.80;99.90;;;;;;7600959;19;20021;-76
2023/03/26 05:23:46;;;;;;;12.77;2.50;;;7.80;99.90;;;;;;7602250;19;20056;-76
2023/03/26 05:26:23;;;;;;;3.67;2.13;;;7.80;99.90;;;;;;7599014;19;20081;-76
2023/03/26 05:28:55;;;;;;;8.23;1.93;;;7.80;99.90;;;;;;7597573;19;20042;-76
2023/03/26 05:31:32;;;;;;;9.82;2.35;;;7.90;99.90;;;;;;7605758;19;20279;-75
2023/03/26 05:34:06;;;;;;;7.00;2.00;;;7.90;99.90;;;;;;7599727;19;20022;-76
2023/03/26 05:36:38;;;;;;;11.55;2.25;;;7.90;99.90;;;;;;7602269;19;20098;-75
2023/03/26 05:39:25;;;;;;;10.90;2.42;;;7.90;99.90;;;;;;7606787;19;20056;-76
2023/03/26 05:42:17;;;;;;;5.20;1.75;;;7.80;99.90;;;;;;7600078;19;20014;-76
2023/03/26 05:45:07;;;;;;;9.77;2.00;;;7.70;99.90;;;;;;7595601;19;20137;-75
2023/03/26 05:47:39;;;;;;;11.27;2.78;;;7.70;99.90;;;;;;7599451;19;20483;-76
2023/03/26 05:50:12;;;;;;;8.63;2.33;;;7.80;99.90;;;;;;7575989;19;20793;-76
2023/03/26 05:52:47;;;;;;;4.65;2.05;;;7.80;99.90;;;;;;7606968;19;20014;-75
2023/03/26 05:55:57;;;;;;;6.75;2.25;;;7.80;99.90;;;;;;7597890;19;20105;-76
2023/03/26 05:58:48;;;;;;;8.43;1.77;;;7.80;99.90;;;;;;7597279;19;20010;-75
2023/03/26 06:01:43;;;;;;;10.83;1.87;;;7.90;99.90;;;;;;7604189;19;20018;-76
2023/03/26 06:04:46;;;;;;;11.15;2.35;;;7.90;99.90;;;;;;7604304;19;20288;-76
2023/03/26 06:07:48;;;;;;;10.38;2.40;;;7.80;99.90;;;;;;7584233;19;21552;-76
2023/03/26 06:10:23;;;;;;;11.63;2.88;;;7.80;99.90;;;;;;7598355;19;20027;-75
2023/03/26 06:12:55;;;;;;;7.82;2.47;;;7.80;99.90;;;;;;7596898;19;20374;-76
2023/03/26 06:15:27;;;;;;;16.02;2.53;;;7.70;99.90;;;;;;7602472;19;20021;-76
2023/03/26 06:18:05;;;;;;;8.13;2.47;;;7.80;99.90;;;;;;7601570;19;20051;-76
2023/03/26 06:21:05;;;;;;;8.05;2.42;;;7.80;99.90;;;;;;7593222;19;20010;-75
2023/03/26 06:23:47;;;;;;;6.03;2.10;;;7.90;99.90;;;;;;7603156;19;20097;-76
2023/03/26 06:26:37;;;;;;;7.15;1.70;;;7.90;99.90;;;;;;7594109;19;20018;-76
2023/03/26 06:29:24;;;;;;;10.80;1.80;;;7.90;99.90;;;;;;7602239;19;20049;-76
2023/03/26 06:32:02;;;;;;;9.27;2.47;;;8.00;99.90;;;;;;7597177;19;20014;-76
2023/03/26 06:34:52;;;;;;;8.07;2.10;;;8.00;99.90;;;;;;7581562;19;20031;-76
2023/03/26 06:37:24;;;;;;;6.77;2.47;;;8.00;99.90;;;;;;7583767;19;20044;-76
2023/03/26 06:40:06;;;;;;;13.30;2.50;;;8.00;99.90;;;;;;7593305;19;21650;-76
2023/03/26 06:43:10;;;;;;;7.80;2.00;;;8.10;99.90;;;;;;7573114;19;20022;-76
2023/03/26 06:46:15;;;;;;;10.68;2.40;;;8.10;99.90;;;;;;7596080;19;20090;-75
2023/03/26 06:48:56;;;;;;;13.00;2.78;;;8.10;99.90;;;;;;7595109;19;20029;-75
2023/03/26 06:51:36;;;;;;;11.18;2.55;;;8.20;99.90;;;;;;7597770;19;20078;-75
2023/03/26 06:54:34;;;;;;;7.30;2.42;;;8.10;99.90;;;;;;7601208;19;20019;-75
2023/03/26 06:57:27;;;;;;;9.55;2.20;;;8.20;99.90;;;;;;7600134;19;20368;-76
2023/03/26 07:00:20;;;;;;;6.63;2.53;;;8.30;99.90;;;;;;7603212;19;20021;-76
2023/03/26 07:03:11;;;;;;;15.07;2.88;;;8.30;99.90;;;;;;7605851;19;20018;-75
2023/03/26 07:06:02;;;;;;;6.60;2.30;;;8.20;99.90;;;;;;7605051;19;20488;-76
2023/03/26 07:09:01;;;;;;;5.88;2.55;;;8.10;99.90;;;;;;7603427;19;20025;-76
2023/03/26 07:11:52;;;;;;;10.73;2.40;;;8.20;99.90;;;;;;7609300;19;20042;-75
2023/03/26 07:14:50;;;;;;;6.90;2.53;;;8.20;99.90;;;;;;7596630;19;20098;-75
2023/03/26 07:17:41;;;;;;;8.00;2.42;;;8.10;99.90;;;;;;7604284;19;20562;-76
2023/03/26 07:20:20;;;;;;;5.57;1.90;;;8.10;99.90;;;;;;7607716;19;20022;-76
2023/03/26 07:22:53;;;;;;;8.53;3.13;;;8.10;99.90;;;;;;7608964;19;20022;-76
2023/03/26 07:25:43;;;;;;;8.35;2.75;;;8.00;99.90;;;;;;7602749;19;20708;-76
2023/03/26 07:29:41;;;;;;;22.52;5.93;;;8.10;99.90;;;;;;7603496;19;20036;-75
2023/03/26 07:32:29;;;;;;;8.60;2.40;;;8.00;99.90;;;;;;7602824;19;20016;-76
2023/03/26 07:35:25;;;;;;;5.78;2.60;;;8.00;99.90;;;;;;7595566;19;20082;-76
2023/03/26 07:38:37;;;;;;;8.38;2.47;;;8.00;99.90;;;;;;7603420;19;20792;-75
2023/03/26 07:42:04;;;;;;;7.50;1.92;;;8.00;99.90;;;;;;7603439;19;20566;-75
2023/03/26 07:45:11;;;;;;;15.30;2.30;;;8.00;99.90;;;;;;7609348;19;20731;-75
2023/03/26 07:48:17;;;;;;;13.18;3.00;;;8.00;99.90;;;;;;7598744;19;20018;-76
2023/03/26 07:51:09;;;;;;;13.88;3.03;;;8.10;99.90;;;;;;7592728;19;20027;-76
2023/03/26 07:53:59;;;;;;;5.75;2.10;;;8.10;99.90;;;;;;7585994;19;20018;-75
2023/03/26 07:57:07;;;;;;;13.73;2.87;;;8.10;99.90;;;;;;7595316;19;20018;-76
2023/03/26 07:59:54;;;;;;;7.45;2.28;;;8.10;99.90;;;;;;7590538;19;20047;-76
2023/03/26 08:03:22;;;;;;;8.95;2.65;;;8.20;99.90;;;;;;7593021;19;20573;-76
2023/03/26 08:06:05;;;;;;;7.93;2.44;;;8.20;99.90;;;;;;6562965;19;10000601;-76
2023/03/26 08:09:21;;;;;;;10.05;2.45;;;8.30;99.90;;;;;;6077098;19;10001476;-76
2023/03/26 08:12:21;;;;;;;5.68;2.13;;;8.30;99.90;;;;;;7600866;19;20064;-74
2023/03/26 08:15:01;;;;;;;9.60;3.00;;;8.30;99.90;;;;;;7604189;19;20109;-76
2023/03/26 08:17:46;;;;;;;9.48;2.83;;;8.30;99.90;;;;;;7578322;19;20015;-78
2023/03/26 08:20:35;;;;;;;14.82;2.72;;;8.40;99.90;;;;;;7587705;19;21270;-77
2023/03/26 08:23:17;;;;;;;13.05;2.60;;;8.40;99.90;;;;;;7582893;19;20499;-76
2023/03/26 08:25:58;;;;;;;9.20;2.55;;;8.50;99.90;;;;;;7599912;19;20018;-76
2023/03/26 08:28:55;;;;;;;11.10;2.80;;;8.50;99.90;;;;;;7597227;19;20056;-76
2023/03/26 08:31:34;;;;;;;10.52;2.90;;;8.50;99.90;;;;;;7596842;19;20014;-77
2023/03/26 08:34:10;;;;;;;6.85;1.95;;;8.60;99.90;;;;;;7580396;19;20110;-76
2023/03/26 08:36:42;;;;;;;15.38;2.90;;;8.60;99.90;;;;;;7561755;19;20039;-76
2023/03/26 08:39:15;;;;;;;15.48;2.80;;;8.60;99.90;;;;;;7590529;19;20011;-77
2023/03/26 08:41:50;;;;;;;6.38;2.50;;;8.60;99.90;;;;;;7588748;19;20110;-77
2023/03/26 08:44:53;;;;;;;16.55;2.78;;;8.70;99.90;;;;;;7596719;19;20082;-77
2023/03/26 08:47:58;;;;;;;7.68;2.50;;;8.80;99.90;;;;;;7600859;19;20018;-76
2023/03/26 08:50:58;;;;;;;11.27;2.15;;;8.80;99.90;;;;;;7571670;19;20014;-76
2023/03/26 08:54:09;;;;;;;13.10;2.60;;;8.90;99.90;;;;;;7579982;19;20024;-76
2023/03/26 08:57:13;;;;;;;18.98;4.65;;;8.90;99.90;;;;;;7579950;19;20094;-75
2023/03/26 09:00:10;;;;;;;20.17;5.13;;;8.90;99.90;;;;;;7584312;19;20014;-75
2023/03/26 09:03:23;;;;;;;11.90;2.90;;;8.90;99.90;;;;;;7595141;19;20023;-76
2023/03/26 09:06:14;;;;;;;5.80;1.90;;;9.00;99.90;;;;;;7589909;19;20069;-76
2023/03/26 09:09:14;;;;;;;13.20;2.97;;;9.00;99.90;;;;;;7595728;19;20032;-76
2023/03/26 09:12:13;;;;;;;8.93;2.40;;;9.10;99.90;;;;;;7587221;19;20032;-76
2023/03/26 09:15:13;;;;;;;9.80;2.40;;;9.00;99.90;;;;;;7570076;19;20018;-75
2023/03/26 09:18:28;;;;;;;6.00;2.00;;;9.00;99.90;;;;;;7582561;19;20018;-76
2023/03/26 09:21:09;;;;;;;;;;;8.90;99.90;;;;;;7578282;19;20048;-76
2023/03/26 09:24:17;;;;;;;7.57;2.33;;;8.80;99.90;;;;;;7596631;19;19919;-76
2023/03/26 09:27:13;;;;;;;8.18;2.45;;;8.80;99.90;;;;;;7574296;19;20025;-75
2023/03/26 09:29:51;;;;;;;11.77;2.70;;;8.80;99.90;;;;;;7596863;19;20018;-74
2023/03/26 09:32:35;;;;;;;14.30;2.70;;;8.90;99.90;;;;;;7583777;19;20014;-75
2023/03/26 09:35:26;;;;;;;13.30;3.13;;;8.80;99.90;;;;;;7571650;19;20625;-75
2023/03/26 09:38:14;;;;;;;14.52;2.70;;;8.80;99.90;;;;;;7555859;19;20053;-75
2023/03/26 09:41:12;;;;;;;8.02;2.20;;;8.90;99.90;;;;;;7584786;19;20022;-76
2023/03/26 09:44:16;;;;;;;11.15;1.95;;;8.80;99.90;;;;;;7568275;19;20745;-75
2023/03/26 09:47:03;;;;;;;11.55;2.92;;;8.80;99.90;;;;;;7596192;19;21155;-76
2023/03/26 09:49:56;;;;;;;9.32;2.70;;;8.70;99.90;;;;;;7595868;19;20018;-74
2023/03/26 09:52:44;;;;;;;9.93;2.13;;;8.60;99.90;;;;;;7571987;19;20136;-76
2023/03/26 09:55:40;;;;;;;9.88;2.47;;;8.50;99.90;;;;;;7590576;19;20105;-76
2023/03/26 09:58:32;;;;;;;12.10;2.60;;;8.50;99.90;;;;;;7586008;19;20043;-75
2023/03/26 10:01:30;;;;;;;10.80;3.13;;;8.50;99.90;;;;;;7582135;19;20018;-74
2023/03/26 10:04:34;;;;;;;10.48;3.40;;;8.60;99.90;;;;;;7569323;19;20022;-71
2023/03/26 10:07:07;;;;;;;13.17;3.73;;;8.50;99.90;;;;;;7526662;19;20019;-76
2023/03/26 10:09:56;;;;;;;14.50;4.05;;;8.60;99.90;;;;;;7579097;19;20018;-79
2023/03/26 10:13:09;;;;;;;12.50;4.15;;;8.70;99.90;;;;;;7548755;19;20029;-72
2023/03/26 10:16:19;;;;;;;10.98;3.58;;;8.70;99.90;;;;;;7535153;19;21100;-73
2023/03/26 10:18:57;;;;;;;12.80;3.20;;;8.80;99.90;;;;;;7563064;19;20010;-75
2023/03/26 10:21:51;;;;;;;10.98;2.70;;;8.80;99.90;;;;;;7555443;19;20015;-74
2023/03/26 10:25:01;;;;;;;14.82;2.97;;;8.80;99.90;;;;;;7556156;19;20010;-75
2023/03/26 10:28:05;;;;;;;10.68;3.20;;;8.70;99.90;;;;;;7531852;19;20844;-74
2023/03/26 10:30:47;;;;;;;;;;;8.60;99.90;;;;;;7567245;19;20015;-76
2023/03/26 10:33:38;;;;;;;5.90;2.70;;;8.70;99.90;;;;;;7566872;19;19930;-74
2023/03/26 10:36:31;;;;;;;10.65;3.40;;;8.60;99.90;;;;;;7544673;19;20071;-75
2023/03/26 10:39:28;;;;;;;9.68;3.20;;;8.70;99.90;;;;;;7589919;19;20024;-77
2023/03/26 10:42:27;;;;;;;10.55;4.10;;;8.50;99.90;;;;;;7572275;19;20130;-76
2023/03/26 10:45:19;;;;;;;9.45;4.18;;;8.70;99.90;;;;;;7580529;19;21097;-76
2023/03/26 10:48:13;;;;;;;9.75;3.80;;;8.70;99.90;;;;;;7579677;19;20015;-75
2023/03/26 10:51:19;;;;;;;9.68;3.60;;;8.60;99.90;;;;;;7575925;19;20007;-76
2023/03/26 10:54:05;;;;;;;6.85;2.97;;;8.60;99.90;;;;;;7583926;19;20078;-74
2023/03/26 10:56:44;;;;;;;6.35;2.20;;;8.40;99.90;;;;;;7584960;19;20014;-74
2023/03/26 10:59:18;;;;;;;8.18;2.88;;;8.30;99.90;;;;;;7592308;19;20614;-74
2023/03/26 11:02:03;;;;;;;8.93;2.47;;;8.20;99.90;;;;;;7588465;19;20013;-73
2023/03/26 11:04:45;;;;;;;2.25;1.45;;;8.00;99.90;;;;;;7585245;19;20074;-75
2023/03/26 11:07:33;;;;;;;3.78;2.38;;;8.00;99.90;;;;;;7572567;19;20980;-74
2023/03/26 11:10:15;;;;;;;8.30;3.22;;;7.90;99.90;;;;;;7587852;19;20105;-73
2023/03/26 11:13:19;;;;;;;10.13;4.50;;;7.90;99.90;;;;;;7578019;19;20061;-74
2023/03/26 11:16:01;;;;;;;12.35;4.68;;;7.90;99.90;;;;;;7573417;19;20621;-74
2023/03/26 11:18:57;;;;;;;10.60;4.47;;;7.90;99.90;;;;;;7578798;19;20014;-72
2023/03/26 11:21:41;;;;;;;8.15;3.80;;;7.90;99.90;;;;;;7558159;19;21101;-74
2023/03/26 11:24:41;;;;;;;7.00;2.67;;;7.90;99.90;;;;;;7578581;19;20021;-72
2023/03/26 11:27:19;;;;;;;5.70;3.15;;;8.00;99.90;;;;;;7574260;19;20650;-73
2023/03/26 11:30:27;;;;;;;7.45;2.85;;;8.00;99.90;;;;;;7589052;19;20018;-73
2023/03/26 11:33:04;;;;;;;5.38;2.90;;;8.00;99.90;;;;;;7589555;19;20091;-74
2023/03/26 11:35:41;;;;;;;9.90;4.35;;;8.00;99.90;;;;;;7592292;19;20026;-74
2023/03/26 11:38:25;;;;;;;8.20;3.90;;;7.90;99.90;;;;;;7569513;19;20034;-75
2023/03/26 11:41:00;;;;;;;7.87;3.10;;;8.00;99.90;;;;;;7065368;19;10000087;-73
2023/03/26 11:43:59;;;;;;;13.82;4.75;;;8.00;99.90;;;;;;7577071;19;20128;-75
2023/03/26 11:46:44;;;;;;;8.95;3.50;;;7.90;99.90;;;;;;7573343;19;20021;-74
2023/03/26 11:49:20;;;;;;;7.07;2.75;;;7.80;99.90;;;;;;7588222;19;20696;-72
2023/03/26 11:51:53;;;;;;;3.53;2.35;;;7.70;99.90;;;;;;7595065;19;20065;-74
2023/03/26 11:54:26;;;;;;;2.75;2.00;;;7.70;99.90;;;;;;7590166;19;20014;-73
2023/03/26 11:57:12;;;;;;;3.63;1.70;;;7.70;99.90;;;;;;7562255;19;20015;-74
2023/03/26 12:00:15;;;;;;;4.35;2.00;;;7.70;99.90;;;;;;7573772;19;20019;-73
2023/03/26 12:02:48;;;;;;;3.78;1.90;;;7.70;99.90;;;;;;7587483;19;20019;-75
2023/03/26 12:05:35;;;;;;;;;;;7.70;99.90;;;;;;7591355;19;20018;-74
2023/03/26 12:08:27;;;;;;;3.05;1.90;;;7.70;99.90;;;;;;7575120;19;19928;-75
2023/03/26 12:11:09;;;;;;;5.40;2.20;;;7.70;99.90;;;;;;7588952;19;20033;-74
2023/03/26 12:14:02;;;;;;;4.25;2.05;;;7.70;99.90;;;;;;7576021;19;20018;-73
2023/03/26 12:16:35;;;;;;;7.38;3.75;;;7.90;99.90;;;;;;7570292;19;20105;-74
2023/03/26 12:19:27;;;;;;;6.47;3.83;;;8.00;99.90;;;;;;7580837;19;20026;-75
2023/03/26 12:22:00;;;;;;;14.05;4.97;;;8.30;99.90;;;;;;7592208;19;20025;-74
2023/03/26 12:24:34;;;;;;;10.40;5.22;;;8.40;99.90;;;;;;7586431;19;20033;-76
2023/03/26 12:27:32;;;;;;;6.93;4.00;;;8.60;99.90;;;;;;7587406;19;20018;-75
2023/03/26 12:30:21;;;;;;;7.65;3.53;;;8.80;99.90;;;;;;7595586;19;20022;-74
2023/03/26 12:33:04;;;;;;;6.88;3.17;;;9.00;99.90;;;;;;7583164;19;20097;-72
2023/03/26 12:35:37;;;;;;;3.97;2.70;;;9.10;99.90;;;;;;7592353;19;20035;-76
2023/03/26 12:38:32;;;;;;;5.63;2.40;;;9.10;99.90;;;;;;7574363;19;20027;-74
2023/03/26 12:41:12;;;;;;;3.65;1.85;;;9.00;99.90;;;;;;7570081;19;20021;-74
2023/03/26 12:44:45;;;;;;;3.83;1.67;;;9.10;99.90;;;;;;7583880;19;20027;-74
2023/03/26 12:47:33;;;;;;;3.10;1.55;;;9.00;99.90;;;;;;7561796;19;20010;-73
2023/03/26 12:50:34;;;;;;;5.68;1.95;;;9.10;99.90;;;;;;7590764;19;20015;-73
2023/03/26 12:53:32;;;;;;;2.60;1.48;;;9.10;99.90;;;;;;7566167;19;20018;-72
2023/03/26 12:56:19;;;;;;;2.90;1.77;;;9.10;99.90;;;;;;7554221;19;20049;-73
2023/03/26 12:59:12;;;;;;;4.43;1.92;;;9.10;99.90;;;;;;7561284;19;20015;-74
2023/03/26 13:02:08;;;;;;;3.20;1.90;;;9.00;99.90;;;;;;7559050;19;20026;-73
2023/03/26 13:04:51;;;;;;;2.15;1.33;;;9.00;99.90;;;;;;7564673;19;20081;-74
2023/03/26 13:07:49;;;;;;;3.08;1.88;;;9.10;99.90;;;;;;7552501;19;20018;-72
2023/03/26 13:10:28;;;;;;;3.55;1.45;;;9.10;99.90;;;;;;7583507;19;20021;-73
2023/03/26 13:13:24;;;;;;;4.80;1.60;;;9.20;99.90;;;;;;7579057;19;20039;-73
2023/03/26 13:16:12;;;;;;;3.58;1.40;;;9.20;99.90;;;;;;7580554;19;20022;-73
2023/03/26 13:18:58;;;;;;;4.38;1.70;;;9.20;99.90;;;;;;7574970;19;20014;-73
2023/03/26 13:21:36;;;;;;;2.85;1.63;;;9.30;99.90;;;;;;7564024;19;20017;-74
2023/03/26 13:24:23;;;;;;;2.72;1.60;;;9.20;99.90;;;;;;7585574;19;20019;-73
2023/03/26 13:27:14;;;;;;;4.18;1.85;;;9.30;99.90;;;;;;7576185;19;20033;-72
2023/03/26 13:30:16;;;;;;;6.30;1.65;;;9.30;99.90;;;;;;7591789;19;20069;-72
2023/03/26 13:32:57;;;;;;;2.20;1.23;;;9.40;99.90;;;;;;7583479;19;20022;-72
2023/03/26 13:35:40;;;;;;;4.25;1.58;;;9.30;99.90;;;;;;7579781;19;20014;-72
2023/03/26 13:38:33;;;;;;;2.73;1.57;;;9.30;99.90;;;;;;7586472;19;20022;-73
2023/03/26 13:41:23;;;;;;;7.15;2.22;;;9.30;99.90;;;;;;7585536;19;20064;-73
2023/03/26 13:44:18;;;;;;;3.17;1.60;;;9.30;99.90;;;;;;7587030;19;20050;-71
2023/03/26 13:47:22;;;;;;;2.35;1.33;;;9.30;99.90;;;;;;7573670;19;20018;-72
2023/03/26 13:50:02;;;;;;;2.30;1.27;;;9.40;99.90;;;;;;7554835;19;20781;-74
2023/03/26 13:53:12;;;;;;;2.08;1.50;;;9.30;99.90;;;;;;7549856;19;20074;-72
2023/03/26 13:55:52;;;;;;;3.00;1.30;;;9.30;99.90;;;;;;7529664;19;20020;-74
2023/03/26 13:59:02;;;;;;;4.35;1.40;;;9.30;99.90;;;;;;7580191;19;20646;-73
2023/03/26 14:01:46;;;;;;;4.35;2.03;;;9.30;99.90;;;;;;7571324;19;20044;-73
2023/03/26 14:04:42;;;;;;;2.63;1.50;;;9.40;99.90;;;;;;7579238;19;20104;-73
2023/03/26 14:07:25;;;;;;;2.28;1.52;;;9.50;99.90;;;;;;7577257;19;20014;-72
2023/03/26 14:10:06;;;;;;;4.32;1.48;;;9.40;99.90;;;;;;7588799;19;20018;-72
2023/03/26 14:13:09;;;;;;;2.95;1.77;;;9.40;99.90;;;;;;7552020;19;20018;-71
2023/03/26 14:16:04;;;;;;;6.07;1.30;;;9.50;99.90;;;;;;7579535;19;25125;-73
2023/03/26 14:18:58;;;;;;;1.83;1.17;;;9.40;99.90;;;;;;7558931;19;20024;-72
2023/03/26 14:21:38;;;;;;;2.22;1.08;;;9.50;99.90;;;;;;7576891;19;20210;-72
2023/03/26 14:24:37;;;;;;;4.13;1.85;;;9.50;99.90;;;;;;7532591;19;20022;-73
2023/03/26 14:27:32;;;;;;;2.65;1.40;;;9.50;99.90;;;;;;7571569;19;20018;-72
2023/03/26 14:30:29;;;;;;;3.42;1.63;;;9.40;99.90;;;;;;7584935;19;20023;-74
2023/03/26 14:33:17;;;;;;;3.97;1.80;;;9.40;99.90;;;;;;7581849;19;20077;-74